sensor_id;sensor_type;location;lat;lon;timestamp;temperature;humidity
25923;DHT22;13725;51.170;4.442;2022-09-09T00:01:49;14.80;99.90
25923;DHT22;13725;51.170;4.442;2022-09-09T00:07:05;14.80;99.90
25923;DHT22;13725;51.170;4.442;2022-09-09T00:09:49;14.70;99.90
25923;DHT22;13725;51.170;4.442;2022-09-09T00:15:05;14.80;99.90
25923;DHT22;13725;51.170;4.442;2022-09-09T00:17:48;14.60;99.90
25923;DHT22;13725;51.170;4.442;2022-09-09T00:22:57;14.70;99.90
25923;DHT22;13725;51.170;4.442;2022-09-09T00:28:19;14.60;99.90
25923;DHT22;13725;51.170;4.442;2022-09-09T00:30:46;14.70;99.90
25923;DHT22;13725;51.170;4.442;2022-09-09T00:33:16;14.60;99.90
25923;DHT22;13725;51.170;4.442;2022-09-09T00:35:56;14.50;99.90
25923;DHT22;13725;51.170;4.442;2022-09-09T00:38:35;14.50;99.90
25923;DHT22;13725;51.170;4.442;2022-09-09T00:41:21;14.70;99.90
25923;DHT22;13725;51.170;4.442;2022-09-09T00:57:31;14.70;99.90
25923;DHT22;13725;51.170;4.442;2022-09-09T01:05:46;14.60;99.90
25923;DHT22;13725;51.170;4.442;2022-09-09T01:08:56;14.60;99.90
25923;DHT22;13725;51.170;4.442;2022-09-09T01:11:35;14.70;99.90
25923;DHT22;13725;51.170;4.442;2022-09-09T01:14:11;14.70;99.90
25923;DHT22;13725;51.170;4.442;2022-09-09T01:16:40;14.70;99.90
25923;DHT22;13725;51.170;4.442;2022-09-09T01:19:11;14.70;99.90
25923;DHT22;13725;51.170;4.442;2022-09-09T01:21:56;14.70;99.90
25923;DHT22;13725;51.170;4.442;2022-09-09T01:24:40;14.80;99.90
25923;DHT22;13725;51.170;4.442;2022-09-09T01:27:23;14.70;99.90
25923;DHT22;13725;51.170;4.442;2022-09-09T01:29:50;14.70;99.90
25923;DHT22;13725;51.170;4.442;2022-09-09T01:32:38;14.80;99.90
25923;DHT22;13725;51.170;4.442;2022-09-09T01:35:22;14.70;99.90
25923;DHT22;13725;51.170;4.442;2022-09-09T01:37:53;14.70;99.90
25923;DHT22;13725;51.170;4.442;2022-09-09T01:40:18;14.60;99.90
25923;DHT22;13725;51.170;4.442;2022-09-09T01:42:46;14.60;99.90
25923;DHT22;13725;51.170;4.442;2022-09-09T01:45:12;14.60;99.90
25923;DHT22;13725;51.170;4.442;2022-09-09T01:47:38;14.50;99.90
25923;DHT22;13725;51.170;4.442;2022-09-09T01:50:15;14.50;99.90
25923;DHT22;13725;51.170;4.442;2022-09-09T01:52:43;14.50;99.90
25923;DHT22;13725;51.170;4.442;2022-09-09T01:55:12;14.40;99.90
25923;DHT22;13725;51.170;4.442;2022-09-09T02:00:13;14.50;99.90
25923;DHT22;13725;51.170;4.442;2022-09-09T02:05:40;14.40;99.90
25923;DHT22;13725;51.170;4.442;2022-09-09T02:08:20;14.40;99.90
25923;DHT22;13725;51.170;4.442;2022-09-09T02:11:22;14.40;99.90
25923;DHT22;13725;51.170;4.442;2022-09-09T02:13:57;14.30;99.90
25923;DHT22;13725;51.170;4.442;2022-09-09T02:16:34;14.40;99.90
25923;DHT22;13725;51.170;4.442;2022-09-09T02:21:54;14.30;99.90
25923;DHT22;13725;51.170;4.442;2022-09-09T02:24:22;14.30;99.90
25923;DHT22;13725;51.170;4.442;2022-09-09T02:27:00;14.40;99.90
25923;DHT22;13725;51.170;4.442;2022-09-09T02:29:34;14.40;99.90
25923;DHT22;13725;51.170;4.442;2022-09-09T02:32:05;14.30;99.90
25923;DHT22;13725;51.170;4.442;2022-09-09T02:34:40;14.30;99.90
25923;DHT22;13725;51.170;4.442;2022-09-09T02:37:08;14.30;99.90
25923;DHT22;13725;51.170;4.442;2022-09-09T02:39:35;14.40;99.90
25923;DHT22;13725;51.170;4.442;2022-09-09T02:42:04;14.30;99.90
25923;DHT22;13725;51.170;4.442;2022-09-09T02:44:31;14.30;99.90
25923;DHT22;13725;51.170;4.442;2022-09-09T02:47:23;14.40;99.90
25923;DHT22;13725;51.170;4.442;2022-09-09T02:49:57;14.40;99.90
25923;DHT22;13725;51.170;4.442;2022-09-09T02:52:54;14.30;99.90
25923;DHT22;13725;51.170;4.442;2022-09-09T02:55:38;14.30;99.90
25923;DHT22;13725;51.170;4.442;2022-09-09T02:58:08;14.30;99.90
25923;DHT22;13725;51.170;4.442;2022-09-09T03:00:37;14.40;99.90
25923;DHT22;13725;51.170;4.442;2022-09-09T03:03:06;14.30;99.90
25923;DHT22;13725;51.170;4.442;2022-09-09T03:05:33;14.30;99.90
25923;DHT22;13725;51.170;4.442;2022-09-09T03:07:59;14.40;99.90
25923;DHT22;13725;51.170;4.442;2022-09-09T03:10:26;14.30;99.90
25923;DHT22;13725;51.170;4.442;2022-09-09T03:12:52;14.30;99.90
25923;DHT22;13725;51.170;4.442;2022-09-09T03:15:18;14.30;99.90
25923;DHT22;13725;51.170;4.442;2022-09-09T03:17:45;14.30;99.90
25923;DHT22;13725;51.170;4.442;2022-09-09T03:20:11;14.50;99.90
25923;DHT22;13725;51.170;4.442;2022-09-09T03:22:37;14.30;99.90
25923;DHT22;13725;51.170;4.442;2022-09-09T03:25:04;14.40;99.90
25923;DHT22;13725;51.170;4.442;2022-09-09T03:27:30;14.30;99.90
25923;DHT22;13725;51.170;4.442;2022-09-09T03:29:56;14.30;99.90
25923;DHT22;13725;51.170;4.442;2022-09-09T03:32:24;14.30;99.90
25923;DHT22;13725;51.170;4.442;2022-09-09T03:34:53;14.30;99.90
25923;DHT22;13725;51.170;4.442;2022-09-09T03:37:19;14.30;99.90
25923;DHT22;13725;51.170;4.442;2022-09-09T03:39:46;14.40;99.90
25923;DHT22;13725;51.170;4.442;2022-09-09T03:42:13;14.50;99.90
25923;DHT22;13725;51.170;4.442;2022-09-09T03:44:51;14.40;99.90
25923;DHT22;13725;51.170;4.442;2022-09-09T03:47:21;14.40;99.90
25923;DHT22;13725;51.170;4.442;2022-09-09T03:49:49;14.40;99.90
25923;DHT22;13725;51.170;4.442;2022-09-09T03:52:15;14.40;99.90
25923;DHT22;13725;51.170;4.442;2022-09-09T03:54:43;14.40;99.90
25923;DHT22;13725;51.170;4.442;2022-09-09T03:57:09;14.50;99.90
25923;DHT22;13725;51.170;4.442;2022-09-09T03:59:36;14.50;99.90
25923;DHT22;13725;51.170;4.442;2022-09-09T04:02:04;14.60;99.90
25923;DHT22;13725;51.170;4.442;2022-09-09T04:04:29;14.60;99.90
25923;DHT22;13725;51.170;4.442;2022-09-09T04:06:56;14.60;99.90
25923;DHT22;13725;51.170;4.442;2022-09-09T04:09:22;14.60;99.90
25923;DHT22;13725;51.170;4.442;2022-09-09T04:11:49;14.60;99.90
25923;DHT22;13725;51.170;4.442;2022-09-09T04:14:15;14.50;99.90
25923;DHT22;13725;51.170;4.442;2022-09-09T04:16:41;14.50;99.90
25923;DHT22;13725;51.170;4.442;2022-09-09T04:19:11;14.60;99.90
25923;DHT22;13725;51.170;4.442;2022-09-09T04:21:42;14.50;99.90
25923;DHT22;13725;51.170;4.442;2022-09-09T04:24:09;14.60;99.90
25923;DHT22;13725;51.170;4.442;2022-09-09T04:26:35;14.60;99.90
25923;DHT22;13725;51.170;4.442;2022-09-09T04:29:03;14.70;99.90
25923;DHT22;13725;51.170;4.442;2022-09-09T04:31:29;14.90;99.90
25923;DHT22;13725;51.170;4.442;2022-09-09T04:33:56;14.70;99.90
25923;DHT22;13725;51.170;4.442;2022-09-09T04:36:22;14.70;99.90
25923;DHT22;13725;51.170;4.442;2022-09-09T04:38:50;14.80;99.90
25923;DHT22;13725;51.170;4.442;2022-09-09T04:41:17;14.60;99.90
25923;DHT22;13725;51.170;4.442;2022-09-09T04:43:45;14.60;99.90
25923;DHT22;13725;51.170;4.442;2022-09-09T04:46:13;14.60;99.90
25923;DHT22;13725;51.170;4.442;2022-09-09T04:48:42;14.60;99.90
25923;DHT22;13725;51.170;4.442;2022-09-09T04:51:12;14.50;99.90
25923;DHT22;13725;51.170;4.442;2022-09-09T04:53:38;14.60;99.90
25923;DHT22;13725;51.170;4.442;2022-09-09T04:56:16;14.60;99.90
25923;DHT22;13725;51.170;4.442;2022-09-09T04:58:48;14.70;99.90
25923;DHT22;13725;51.170;4.442;2022-09-09T05:01:21;14.50;99.90
25923;DHT22;13725;51.170;4.442;2022-09-09T05:03:49;14.60;99.90
25923;DHT22;13725;51.170;4.442;2022-09-09T05:06:20;14.50;99.90
25923;DHT22;13725;51.170;4.442;2022-09-09T05:08:49;14.50;99.90
25923;DHT22;13725;51.170;4.442;2022-09-09T05:11:21;14.60;99.90
25923;DHT22;13725;51.170;4.442;2022-09-09T05:13:50;14.60;99.90
25923;DHT22;13725;51.170;4.442;2022-09-09T05:16:17;14.60;99.90
25923;DHT22;13725;51.170;4.442;2022-09-09T05:18:44;14.70;99.90
25923;DHT22;13725;51.170;4.442;2022-09-09T05:21:13;14.70;99.90
25923;DHT22;13725;51.170;4.442;2022-09-09T05:23:39;14.70;99.90
25923;DHT22;13725;51.170;4.442;2022-09-09T05:26:06;14.80;99.90
25923;DHT22;13725;51.170;4.442;2022-09-09T05:28:36;14.80;99.90
25923;DHT22;13725;51.170;4.442;2022-09-09T05:31:07;14.80;99.90
25923;DHT22;13725;51.170;4.442;2022-09-09T05:33:39;15.00;99.90
25923;DHT22;13725;51.170;4.442;2022-09-09T05:36:08;15.20;99.90
25923;DHT22;13725;51.170;4.442;2022-09-09T05:38:36;15.20;99.90
25923;DHT22;13725;51.170;4.442;2022-09-09T05:41:03;15.20;99.90
25923;DHT22;13725;51.170;4.442;2022-09-09T05:43:29;15.30;99.90
25923;DHT22;13725;51.170;4.442;2022-09-09T05:46:05;15.40;99.90
25923;DHT22;13725;51.170;4.442;2022-09-09T05:48:36;15.30;99.90
25923;DHT22;13725;51.170;4.442;2022-09-09T05:51:03;15.40;99.90
25923;DHT22;13725;51.170;4.442;2022-09-09T05:53:30;15.60;99.90
25923;DHT22;13725;51.170;4.442;2022-09-09T05:56:08;15.70;99.90
25923;DHT22;13725;51.170;4.442;2022-09-09T05:58:38;15.70;99.90
25923;DHT22;13725;51.170;4.442;2022-09-09T06:01:11;15.60;99.90
25923;DHT22;13725;51.170;4.442;2022-09-09T06:03:39;15.70;99.90
25923;DHT22;13725;51.170;4.442;2022-09-09T06:06:08;15.60;99.90
25923;DHT22;13725;51.170;4.442;2022-09-09T06:08:35;15.50;99.90
25923;DHT22;13725;51.170;4.442;2022-09-09T06:13:32;15.60;99.90
25923;DHT22;13725;51.170;4.442;2022-09-09T06:15:58;15.60;99.90
25923;DHT22;13725;51.170;4.442;2022-09-09T06:18:26;15.60;99.90
25923;DHT22;13725;51.170;4.442;2022-09-09T06:21:04;15.70;99.90
25923;DHT22;13725;51.170;4.442;2022-09-09T06:23:30;15.60;99.90
25923;DHT22;13725;51.170;4.442;2022-09-09T06:26:04;15.70;99.90
25923;DHT22;13725;51.170;4.442;2022-09-09T06:28:35;15.70;99.90
25923;DHT22;13725;51.170;4.442;2022-09-09T06:31:06;15.90;99.90
25923;DHT22;13725;51.170;4.442;2022-09-09T06:33:34;16.10;99.90
25923;DHT22;13725;51.170;4.442;2022-09-09T06:36:02;16.00;99.90
25923;DHT22;13725;51.170;4.442;2022-09-09T06:38:30;15.90;99.90
25923;DHT22;13725;51.170;4.442;2022-09-09T06:40:58;16.20;99.90
25923;DHT22;13725;51.170;4.442;2022-09-09T06:43:25;16.80;99.90
25923;DHT22;13725;51.170;4.442;2022-09-09T06:45:55;17.20;99.90
25923;DHT22;13725;51.170;4.442;2022-09-09T06:48:21;17.00;99.90
25923;DHT22;13725;51.170;4.442;2022-09-09T06:50:47;17.00;99.90
25923;DHT22;13725;51.170;4.442;2022-09-09T06:53:18;16.80;99.90
25923;DHT22;13725;51.170;4.442;2022-09-09T06:55:46;16.60;99.90
25923;DHT22;13725;51.170;4.442;2022-09-09T06:58:12;16.50;99.90
25923;DHT22;13725;51.170;4.442;2022-09-09T07:00:38;16.80;99.90
25923;DHT22;13725;51.170;4.442;2022-09-09T07:03:04;16.70;99.90
25923;DHT22;13725;51.170;4.442;2022-09-09T07:05:32;16.70;99.90
25923;DHT22;13725;51.170;4.442;2022-09-09T07:07:57;16.80;99.90
25923;DHT22;13725;51.170;4.442;2022-09-09T07:10:25;16.70;99.90
25923;DHT22;13725;51.170;4.442;2022-09-09T07:12:51;16.80;99.90
25923;DHT22;13725;51.170;4.442;2022-09-09T07:15:19;16.70;99.90
25923;DHT22;13725;51.170;4.442;2022-09-09T07:17:44;16.80;99.90
25923;DHT22;13725;51.170;4.442;2022-09-09T07:20:11;17.00;99.90
25923;DHT22;13725;51.170;4.442;2022-09-09T07:22:38;17.00;99.90
25923;DHT22;13725;51.170;4.442;2022-09-09T07:25:04;17.00;99.90
25923;DHT22;13725;51.170;4.442;2022-09-09T07:27:32;16.90;99.90
25923;DHT22;13725;51.170;4.442;2022-09-09T07:29:58;17.00;99.90
25923;DHT22;13725;51.170;4.442;2022-09-09T07:32:24;17.10;99.90
25923;DHT22;13725;51.170;4.442;2022-09-09T07:34:51;17.30;99.90
25923;DHT22;13725;51.170;4.442;2022-09-09T07:37:17;17.20;99.90
25923;DHT22;13725;51.170;4.442;2022-09-09T07:39:44;17.10;99.90
25923;DHT22;13725;51.170;4.442;2022-09-09T07:42:10;17.10;99.90
25923;DHT22;13725;51.170;4.442;2022-09-09T07:44:37;17.00;99.90
25923;DHT22;13725;51.170;4.442;2022-09-09T07:47:10;17.10;99.90
25923;DHT22;13725;51.170;4.442;2022-09-09T07:49:41;17.10;99.90
25923;DHT22;13725;51.170;4.442;2022-09-09T07:52:08;17.00;99.90
25923;DHT22;13725;51.170;4.442;2022-09-09T07:54:35;17.10;99.90
25923;DHT22;13725;51.170;4.442;2022-09-09T07:57:04;17.30;99.90
25923;DHT22;13725;51.170;4.442;2022-09-09T07:59:31;17.20;99.90
25923;DHT22;13725;51.170;4.442;2022-09-09T08:01:58;17.10;99.90
25923;DHT22;13725;51.170;4.442;2022-09-09T08:04:27;17.10;99.90
25923;DHT22;13725;51.170;4.442;2022-09-09T08:06:57;17.00;99.90
25923;DHT22;13725;51.170;4.442;2022-09-09T08:09:25;17.20;99.90
25923;DHT22;13725;51.170;4.442;2022-09-09T08:11:53;17.40;99.90
25923;DHT22;13725;51.170;4.442;2022-09-09T08:14:19;17.50;99.90
25923;DHT22;13725;51.170;4.442;2022-09-09T08:16:47;17.50;99.90
25923;DHT22;13725;51.170;4.442;2022-09-09T08:19:17;17.40;99.90
25923;DHT22;13725;51.170;4.442;2022-09-09T08:21:45;17.30;99.90
25923;DHT22;13725;51.170;4.442;2022-09-09T08:24:12;17.30;99.90
25923;DHT22;13725;51.170;4.442;2022-09-09T08:26:43;17.20;99.90
25923;DHT22;13725;51.170;4.442;2022-09-09T08:29:12;17.20;99.90
25923;DHT22;13725;51.170;4.442;2022-09-09T08:31:49;17.20;99.90
25923;DHT22;13725;51.170;4.442;2022-09-09T08:34:16;17.30;99.90
25923;DHT22;13725;51.170;4.442;2022-09-09T08:36:48;17.40;99.90
25923;DHT22;13725;51.170;4.442;2022-09-09T08:39:16;17.70;99.90
25923;DHT22;13725;51.170;4.442;2022-09-09T08:42:12;17.60;99.90
25923;DHT22;13725;51.170;4.442;2022-09-09T08:44:43;17.80;99.90
25923;DHT22;13725;51.170;4.442;2022-09-09T08:55:39;17.80;99.90
25923;DHT22;13725;51.170;4.442;2022-09-09T08:58:14;17.80;99.90
25923;DHT22;13725;51.170;4.442;2022-09-09T09:03:57;17.60;99.90
25923;DHT22;13725;51.170;4.442;2022-09-09T09:09:06;17.30;99.90
25923;DHT22;13725;51.170;4.442;2022-09-09T09:11:38;17.20;99.90
25923;DHT22;13725;51.170;4.442;2022-09-09T09:14:21;17.00;99.90
25923;DHT22;13725;51.170;4.442;2022-09-09T09:16:56;16.90;99.90
25923;DHT22;13725;51.170;4.442;2022-09-09T09:19:23;16.90;99.90
25923;DHT22;13725;51.170;4.442;2022-09-09T09:22:06;16.80;99.90
25923;DHT22;13725;51.170;4.442;2022-09-09T09:24:55;16.90;99.90
25923;DHT22;13725;51.170;4.442;2022-09-09T09:27:34;16.90;99.90
25923;DHT22;13725;51.170;4.442;2022-09-09T09:30:18;16.80;99.90
25923;DHT22;13725;51.170;4.442;2022-09-09T09:32:58;16.70;99.90
25923;DHT22;13725;51.170;4.442;2022-09-09T09:35:26;16.60;99.90
25923;DHT22;13725;51.170;4.442;2022-09-09T09:37:52;16.60;99.90
25923;DHT22;13725;51.170;4.442;2022-09-09T09:40:20;16.60;99.90
25923;DHT22;13725;51.170;4.442;2022-09-09T09:42:57;16.60;99.90
25923;DHT22;13725;51.170;4.442;2022-09-09T09:45:28;16.60;99.90
25923;DHT22;13725;51.170;4.442;2022-09-09T09:48:04;16.50;99.90
25923;DHT22;13725;51.170;4.442;2022-09-09T09:50:33;16.50;99.90
25923;DHT22;13725;51.170;4.442;2022-09-09T09:53:03;16.50;99.90
25923;DHT22;13725;51.170;4.442;2022-09-09T09:55:34;16.60;99.90
25923;DHT22;13725;51.170;4.442;2022-09-09T09:58:05;16.60;99.90
25923;DHT22;13725;51.170;4.442;2022-09-09T10:00:33;16.70;99.90
25923;DHT22;13725;51.170;4.442;2022-09-09T10:03:30;16.80;99.90
25923;DHT22;13725;51.170;4.442;2022-09-09T10:05:58;16.70;99.90
25923;DHT22;13725;51.170;4.442;2022-09-09T10:08:25;16.70;99.90
25923;DHT22;13725;51.170;4.442;2022-09-09T10:11:09;16.60;99.90
25923;DHT22;13725;51.170;4.442;2022-09-09T10:19:04;16.60;99.90
25923;DHT22;13725;51.170;4.442;2022-09-09T10:27:29;16.90;99.90
25923;DHT22;13725;51.170;4.442;2022-09-09T10:30:12;17.00;99.90
25923;DHT22;13725;51.170;4.442;2022-09-09T10:35:32;17.10;99.90
25923;DHT22;13725;51.170;4.442;2022-09-09T10:38:24;17.10;99.90
25923;DHT22;13725;51.170;4.442;2022-09-09T10:49:05;17.90;99.90
25923;DHT22;13725;51.170;4.442;2022-09-09T10:54:56;18.30;99.90
25923;DHT22;13725;51.170;4.442;2022-09-09T10:57:46;18.40;99.90
25923;DHT22;13725;51.170;4.442;2022-09-09T11:00:40;18.60;99.90
25923;DHT22;13725;51.170;4.442;2022-09-09T11:03:19;18.80;99.90
25923;DHT22;13725;51.170;4.442;2022-09-09T11:05:53;18.90;99.90
25923;DHT22;13725;51.170;4.442;2022-09-09T11:08:26;18.90;99.90
25923;DHT22;13725;51.170;4.442;2022-09-09T11:13:52;18.70;99.90
25923;DHT22;13725;51.170;4.442;2022-09-09T11:16:33;18.70;99.90
25923;DHT22;13725;51.170;4.442;2022-09-09T11:19:09;18.70;99.90
25923;DHT22;13725;51.170;4.442;2022-09-09T11:21:42;19.00;99.90
25923;DHT22;13725;51.170;4.442;2022-09-09T11:29:47;20.00;99.90
25923;DHT22;13725;51.170;4.442;2022-09-09T11:38:34;21.00;99.90
25923;DHT22;13725;51.170;4.442;2022-09-09T11:40:33;21.10;99.90
25923;DHT22;13725;51.170;4.442;2022-09-09T11:43:10;21.00;99.90
25923;DHT22;13725;51.170;4.442;2022-09-09T11:45:40;20.90;99.90
25923;DHT22;13725;51.170;4.442;2022-09-09T11:48:30;21.10;99.90
25923;DHT22;13725;51.170;4.442;2022-09-09T11:50:59;21.40;99.90
25923;DHT22;13725;51.170;4.442;2022-09-09T11:53:25;21.80;99.90
25923;DHT22;13725;51.170;4.442;2022-09-09T11:56:04;22.00;99.90
25923;DHT22;13725;51.170;4.442;2022-09-09T11:58:43;21.80;99.90
25923;DHT22;13725;51.170;4.442;2022-09-09T12:01:16;21.80;99.90
25923;DHT22;13725;51.170;4.442;2022-09-09T12:03:54;22.00;99.90
25923;DHT22;13725;51.170;4.442;2022-09-09T12:06:42;22.00;99.90
25923;DHT22;13725;51.170;4.442;2022-09-09T12:11:49;22.30;99.90
25923;DHT22;13725;51.170;4.442;2022-09-09T12:15:16;22.90;99.90
25923;DHT22;13725;51.170;4.442;2022-09-09T12:17:27;22.90;99.90
25923;DHT22;13725;51.170;4.442;2022-09-09T12:20:02;23.20;99.90
25923;DHT22;13725;51.170;4.442;2022-09-09T12:30:51;23.00;99.90
25923;DHT22;13725;51.170;4.442;2022-09-09T12:33:21;23.70;99.90
25923;DHT22;13725;51.170;4.442;2022-09-09T12:35:57;23.80;99.90
25923;DHT22;13725;51.170;4.442;2022-09-09T12:38:32;23.60;99.90
25923;DHT22;13725;51.170;4.442;2022-09-09T12:40:59;23.40;99.90
25923;DHT22;13725;51.170;4.442;2022-09-09T12:43:27;23.10;99.90
25923;DHT22;13725;51.170;4.442;2022-09-09T12:46:12;22.80;99.90
25923;DHT22;13725;51.170;4.442;2022-09-09T12:48:42;22.20;99.90
25923;DHT22;13725;51.170;4.442;2022-09-09T12:51:24;21.90;99.90
25923;DHT22;13725;51.170;4.442;2022-09-09T12:53:51;21.70;99.90
25923;DHT22;13725;51.170;4.442;2022-09-09T12:56:26;21.60;99.90
25923;DHT22;13725;51.170;4.442;2022-09-09T12:58:54;21.70;99.90
25923;DHT22;13725;51.170;4.442;2022-09-09T13:01:26;22.10;99.90
25923;DHT22;13725;51.170;4.442;2022-09-09T13:03:52;22.50;99.90
25923;DHT22;13725;51.170;4.442;2022-09-09T13:06:21;23.50;99.90
25923;DHT22;13725;51.170;4.442;2022-09-09T13:08:49;24.30;99.90
25923;DHT22;13725;51.170;4.442;2022-09-09T13:11:23;24.70;99.90
25923;DHT22;13725;51.170;4.442;2022-09-09T13:13:52;24.70;99.90
25923;DHT22;13725;51.170;4.442;2022-09-09T13:16:33;24.30;99.90
25923;DHT22;13725;51.170;4.442;2022-09-09T13:19:21;24.20;99.90
25923;DHT22;13725;51.170;4.442;2022-09-09T13:21:47;24.00;99.90
25923;DHT22;13725;51.170;4.442;2022-09-09T13:24:31;24.10;99.90
25923;DHT22;13725;51.170;4.442;2022-09-09T13:26:59;23.80;99.90
25923;DHT22;13725;51.170;4.442;2022-09-09T13:29:28;23.50;99.90
25923;DHT22;13725;51.170;4.442;2022-09-09T13:32:03;23.70;99.90
25923;DHT22;13725;51.170;4.442;2022-09-09T13:34:35;25.20;99.90
25923;DHT22;13725;51.170;4.442;2022-09-09T13:37:04;25.80;99.90
25923;DHT22;13725;51.170;4.442;2022-09-09T13:39:36;26.10;99.90
25923;DHT22;13725;51.170;4.442;2022-09-09T13:42:03;26.20;99.90
25923;DHT22;13725;51.170;4.442;2022-09-09T13:44:36;25.90;99.90
25923;DHT22;13725;51.170;4.442;2022-09-09T13:47:18;26.00;99.90
25923;DHT22;13725;51.170;4.442;2022-09-09T13:49:45;25.70;99.90
25923;DHT22;13725;51.170;4.442;2022-09-09T13:52:13;24.80;99.90
25923;DHT22;13725;51.170;4.442;2022-09-09T13:54:40;24.60;99.90
25923;DHT22;13725;51.170;4.442;2022-09-09T13:57:24;24.60;99.90
25923;DHT22;13725;51.170;4.442;2022-09-09T13:59:54;24.70;99.90
25923;DHT22;13725;51.170;4.442;2022-09-09T14:02:21;24.80;99.90
25923;DHT22;13725;51.170;4.442;2022-09-09T14:04:48;24.50;99.90
25923;DHT22;13725;51.170;4.442;2022-09-09T14:07:18;24.20;99.90
25923;DHT22;13725;51.170;4.442;2022-09-09T14:09:44;23.80;99.90
25923;DHT22;13725;51.170;4.442;2022-09-09T14:12:14;23.50;99.90
25923;DHT22;13725;51.170;4.442;2022-09-09T14:14:41;23.10;99.90
25923;DHT22;13725;51.170;4.442;2022-09-09T14:17:08;22.80;99.90
25923;DHT22;13725;51.170;4.442;2022-09-09T14:19:34;22.80;99.90
25923;DHT22;13725;51.170;4.442;2022-09-09T14:22:03;22.70;99.90
25923;DHT22;13725;51.170;4.442;2022-09-09T14:24:29;22.70;99.90
25923;DHT22;13725;51.170;4.442;2022-09-09T14:26:55;22.80;99.90
25923;DHT22;13725;51.170;4.442;2022-09-09T14:29:21;22.80;99.90
25923;DHT22;13725;51.170;4.442;2022-09-09T14:31:47;22.60;99.90
25923;DHT22;13725;51.170;4.442;2022-09-09T14:34:13;22.50;99.90
25923;DHT22;13725;51.170;4.442;2022-09-09T14:36:40;22.40;99.90
25923;DHT22;13725;51.170;4.442;2022-09-09T14:39:07;22.20;99.90
25923;DHT22;13725;51.170;4.442;2022-09-09T14:41:32;22.20;99.90
25923;DHT22;13725;51.170;4.442;2022-09-09T14:43:59;22.30;99.90
25923;DHT22;13725;51.170;4.442;2022-09-09T14:46:25;22.70;99.90
25923;DHT22;13725;51.170;4.442;2022-09-09T14:48:52;23.10;99.90
25923;DHT22;13725;51.170;4.442;2022-09-09T14:51:21;23.20;99.90
25923;DHT22;13725;51.170;4.442;2022-09-09T14:53:54;23.20;99.90
25923;DHT22;13725;51.170;4.442;2022-09-09T14:56:23;23.30;99.90
25923;DHT22;13725;51.170;4.442;2022-09-09T14:58:50;23.00;99.90
25923;DHT22;13725;51.170;4.442;2022-09-09T15:01:18;22.70;99.90
25923;DHT22;13725;51.170;4.442;2022-09-09T15:03:52;22.60;99.90
25923;DHT22;13725;51.170;4.442;2022-09-09T15:06:19;22.40;99.90
25923;DHT22;13725;51.170;4.442;2022-09-09T15:08:46;22.10;99.90
25923;DHT22;13725;51.170;4.442;2022-09-09T15:11:14;22.00;99.90
25923;DHT22;13725;51.170;4.442;2022-09-09T15:13:41;21.80;99.90
25923;DHT22;13725;51.170;4.442;2022-09-09T15:16:10;21.50;99.90
25923;DHT22;13725;51.170;4.442;2022-09-09T15:18:36;21.10;99.90
25923;DHT22;13725;51.170;4.442;2022-09-09T15:21:05;20.90;99.90
25923;DHT22;13725;51.170;4.442;2022-09-09T15:23:32;20.60;99.90
25923;DHT22;13725;51.170;4.442;2022-09-09T15:25:58;20.40;99.90
25923;DHT22;13725;51.170;4.442;2022-09-09T15:28:24;20.30;99.90
25923;DHT22;13725;51.170;4.442;2022-09-09T15:30:51;20.20;99.90
25923;DHT22;13725;51.170;4.442;2022-09-09T15:33:20;20.20;99.90
25923;DHT22;13725;51.170;4.442;2022-09-09T15:35:46;20.20;99.90
25923;DHT22;13725;51.170;4.442;2022-09-09T15:38:12;20.40;99.90
25923;DHT22;13725;51.170;4.442;2022-09-09T15:40:40;20.60;99.90
25923;DHT22;13725;51.170;4.442;2022-09-09T15:43:06;20.70;99.90
25923;DHT22;13725;51.170;4.442;2022-09-09T15:45:33;20.90;99.90
25923;DHT22;13725;51.170;4.442;2022-09-09T15:48:03;21.10;99.90
25923;DHT22;13725;51.170;4.442;2022-09-09T15:50:29;21.20;99.90
25923;DHT22;13725;51.170;4.442;2022-09-09T15:52:58;21.10;99.90
25923;DHT22;13725;51.170;4.442;2022-09-09T15:55:24;21.00;99.90
25923;DHT22;13725;51.170;4.442;2022-09-09T15:57:52;20.90;99.90
25923;DHT22;13725;51.170;4.442;2022-09-09T16:00:19;20.70;99.90
25923;DHT22;13725;51.170;4.442;2022-09-09T16:02:47;20.60;99.90
25923;DHT22;13725;51.170;4.442;2022-09-09T16:05:13;20.50;99.90
25923;DHT22;13725;51.170;4.442;2022-09-09T16:07:39;20.30;99.90
25923;DHT22;13725;51.170;4.442;2022-09-09T16:10:05;20.10;99.90
25923;DHT22;13725;51.170;4.442;2022-09-09T16:12:31;19.90;99.90
25923;DHT22;13725;51.170;4.442;2022-09-09T16:14:57;19.80;99.90
25923;DHT22;13725;51.170;4.442;2022-09-09T16:17:22;19.70;99.90
25923;DHT22;13725;51.170;4.442;2022-09-09T16:19:48;19.70;99.90
25923;DHT22;13725;51.170;4.442;2022-09-09T16:22:14;19.90;99.90
25923;DHT22;13725;51.170;4.442;2022-09-09T16:24:40;19.90;99.90
25923;DHT22;13725;51.170;4.442;2022-09-09T16:27:06;20.00;99.90
25923;DHT22;13725;51.170;4.442;2022-09-09T16:29:32;20.00;99.90
25923;DHT22;13725;51.170;4.442;2022-09-09T16:31:58;20.10;99.90
25923;DHT22;13725;51.170;4.442;2022-09-09T16:34:25;20.00;99.90
25923;DHT22;13725;51.170;4.442;2022-09-09T16:36:51;20.00;99.90
25923;DHT22;13725;51.170;4.442;2022-09-09T16:39:18;19.90;99.90
25923;DHT22;13725;51.170;4.442;2022-09-09T16:41:46;19.80;99.90
25923;DHT22;13725;51.170;4.442;2022-09-09T16:44:14;19.70;99.90
25923;DHT22;13725;51.170;4.442;2022-09-09T16:46:42;19.70;99.90
25923;DHT22;13725;51.170;4.442;2022-09-09T16:49:12;19.60;99.90
25923;DHT22;13725;51.170;4.442;2022-09-09T16:51:44;19.60;99.90
25923;DHT22;13725;51.170;4.442;2022-09-09T16:54:10;19.50;99.90
25923;DHT22;13725;51.170;4.442;2022-09-09T16:56:39;19.40;99.90
25923;DHT22;13725;51.170;4.442;2022-09-09T16:59:13;19.20;99.90
25923;DHT22;13725;51.170;4.442;2022-09-09T17:01:40;19.10;99.90
25923;DHT22;13725;51.170;4.442;2022-09-09T17:04:11;19.00;99.90
25923;DHT22;13725;51.170;4.442;2022-09-09T17:06:38;18.90;99.90
25923;DHT22;13725;51.170;4.442;2022-09-09T17:09:08;18.90;99.90
25923;DHT22;13725;51.170;4.442;2022-09-09T17:11:34;18.90;99.90
25923;DHT22;13725;51.170;4.442;2022-09-09T17:14:01;18.90;99.90
25923;DHT22;13725;51.170;4.442;2022-09-09T17:16:29;18.90;99.90
25923;DHT22;13725;51.170;4.442;2022-09-09T17:18:56;18.90;99.90
25923;DHT22;13725;51.170;4.442;2022-09-09T17:21:25;18.90;99.90
25923;DHT22;13725;51.170;4.442;2022-09-09T17:23:52;18.90;99.90
25923;DHT22;13725;51.170;4.442;2022-09-09T17:26:19;18.80;99.90
25923;DHT22;13725;51.170;4.442;2022-09-09T17:28:46;18.80;99.90
25923;DHT22;13725;51.170;4.442;2022-09-09T17:31:14;18.70;99.90
25923;DHT22;13725;51.170;4.442;2022-09-09T17:33:43;18.60;99.90
25923;DHT22;13725;51.170;4.442;2022-09-09T17:36:13;18.50;99.90
25923;DHT22;13725;51.170;4.442;2022-09-09T17:38:40;18.50;99.90